createdAt,value
2022-09-25T00:02:21.769Z,20.40
2022-09-25T00:07:25.628Z,19.90
2022-09-25T00:12:28.847Z,20.60
2022-09-25T00:17:32.467Z,20.00
2022-09-25T00:22:35.629Z,20.13
2022-09-25T00:27:38.772Z,20.63
2022-09-25T00:32:41.894Z,20.23
2022-09-25T00:37:45.053Z,20.13
2022-09-25T00:42:48.359Z,20.57
2022-09-25T00:48:03.489Z,19.53
2022-09-25T00:53:12.438Z,20.57
2022-09-25T00:58:18.807Z,20.53
2022-09-25T01:03:23.148Z,19.87
2022-09-25T01:08:30.389Z,19.60
2022-09-25T01:13:33.920Z,20.07
2022-09-25T01:18:40.073Z,20.57
2022-09-25T01:23:58.978Z,21.10
2022-09-25T01:29:22.384Z,20.63
2022-09-25T01:34:28.830Z,19.43
2022-09-25T01:39:41.628Z,20.03
2022-09-25T01:44:50.375Z,19.37
2022-09-25T01:50:03.415Z,19.10
2022-09-25T01:55:13.486Z,19.23
2022-09-25T02:00:22.512Z,19.60
2022-09-25T02:05:40.433Z,19.13
2022-09-25T02:10:56.554Z,19.13
2022-09-25T02:16:07.695Z,19.03
2022-09-25T02:21:34.818Z,18.53
2022-09-25T02:26:38.958Z,18.63
2022-09-25T02:31:51.410Z,17.90
2022-09-25T02:36:54.829Z,18.30
2022-09-25T02:42:39.389Z,18.20
2022-09-25T02:48:08.125Z,18.67
2022-09-25T02:53:43.030Z,19.23
2022-09-25T02:58:56.798Z,18.93
2022-09-25T03:04:02.372Z,18.87
2022-09-25T03:09:07.479Z,17.70
2022-09-25T03:14:11.692Z,18.63
2022-09-25T03:19:15.369Z,17.80
2022-09-25T03:24:19.016Z,16.93
2022-09-25T03:29:22.870Z,19.73
2022-09-25T03:34:26.244Z,19.80
2022-09-25T03:39:29.437Z,21.23
2022-09-25T03:44:32.890Z,20.37
2022-09-25T03:49:35.869Z,20.07
2022-09-25T03:54:39.118Z,17.97
2022-09-25T03:59:42.258Z,20.60
2022-09-25T04:05:05.823Z,20.07
2022-09-25T04:10:09.691Z,20.00
2022-09-25T04:15:12.640Z,18.90
2022-09-25T04:20:15.682Z,21.13
2022-09-25T04:25:24.541Z,20.97
2022-09-25T04:30:29.472Z,21.63
2022-09-25T04:35:32.675Z,21.47
2022-09-25T04:40:36.221Z,21.70
2022-09-25T04:45:39.831Z,22.77
2022-09-25T04:50:52.231Z,21.40
2022-09-25T04:56:01.027Z,23.77
2022-09-25T05:01:10.146Z,22.80
2022-09-25T05:06:14.755Z,20.73
2022-09-25T05:11:18.141Z,21.53
2022-09-25T05:16:22.390Z,21.03
2022-09-25T05:21:25.982Z,23.40
2022-09-25T05:26:31.040Z,23.47
2022-09-25T05:31:34.372Z,24.07
2022-09-25T05:36:37.704Z,23.70
2022-09-25T05:41:40.851Z,25.67
2022-09-25T05:46:44.289Z,21.17
2022-09-25T05:51:48.571Z,21.30
2022-09-25T05:56:51.489Z,21.53
2022-09-25T06:01:54.960Z,20.77
2022-09-25T06:07:01.611Z,23.13
2022-09-25T06:12:04.902Z,24.63
2022-09-25T06:17:08.844Z,28.70
2022-09-25T06:22:12.062Z,32.27
2022-09-25T06:27:15.341Z,34.87
2022-09-25T06:32:18.619Z,35.80
2022-09-25T06:37:21.751Z,28.07
2022-09-25T06:42:24.672Z,27.07
2022-09-25T06:47:27.921Z,23.43
2022-09-25T06:52:31.121Z,24.47
2022-09-25T06:57:37.518Z,24.83
2022-09-25T07:02:59.607Z,25.70
2022-09-25T07:08:03.189Z,27.47
2022-09-25T07:13:06.751Z,27.43
2022-09-25T07:18:10.222Z,28.77
2022-09-25T07:23:18.111Z,31.40
2022-09-25T07:28:21.374Z,30.80
2022-09-25T07:33:27.493Z,30.87
2022-09-25T07:38:35.283Z,29.10
2022-09-25T07:43:39.130Z,32.40
2022-09-25T07:48:42.291Z,31.80
2022-09-25T07:53:46.622Z,30.70
2022-09-25T07:58:55.243Z,29.80
2022-09-25T08:03:58.659Z,29.63
2022-09-25T08:09:08.242Z,28.97
2022-09-25T08:14:14.860Z,28.80
2022-09-25T08:19:19.169Z,29.13
2022-09-25T08:24:22.769Z,28.50
2022-09-25T08:29:26.482Z,28.83
2022-09-25T08:34:40.523Z,27.70
2022-09-25T08:39:44.579Z,25.73
2022-09-25T08:45:27.709Z,25.17
2022-09-25T08:50:31.578Z,27.60
2022-09-25T08:55:59.393Z,27.90
2022-09-25T09:01:06.884Z,26.67
2022-09-25T09:06:15.223Z,26.73
2022-09-25T09:11:31.659Z,27.93
2022-09-25T09:17:01.435Z,26.13
2022-09-25T09:22:11.942Z,26.47
2022-09-25T09:27:29.270Z,27.13
2022-09-25T09:33:01.892Z,25.67
2022-09-25T09:38:28.721Z,24.92
2022-09-25T09:43:56.549Z,25.43
2022-09-25T09:49:20.722Z,24.67
2022-09-25T09:54:36.290Z,24.93
2022-09-25T10:00:19.650Z,25.33
2022-09-25T10:05:35.963Z,24.70
2022-09-25T10:10:43.953Z,23.05
2022-09-25T10:15:52.855Z,20.17
2022-09-25T10:21:24.392Z,21.58
2022-09-25T10:26:39.278Z,21.05
2022-09-25T10:31:42.948Z,21.98
2022-09-25T10:36:50.313Z,20.17
2022-09-25T10:41:53.884Z,17.88
2022-09-25T10:47:15.621Z,18.17
2022-09-25T10:52:22.938Z,18.95
2022-09-25T10:57:37.164Z,17.30
2022-09-25T11:02:43.687Z,16.80
2022-09-25T11:08:01.112Z,17.65
2022-09-25T11:13:09.824Z,15.05
2022-09-25T11:18:47.033Z,14.82
2022-09-25T11:24:23.002Z,13.30
2022-09-25T11:29:34.208Z,13.32
2022-09-25T11:34:57.791Z,14.90
2022-09-25T11:40:30.095Z,13.82
2022-09-25T11:45:54.677Z,14.88
2022-09-25T11:51:48.989Z,14.57
2022-09-25T11:57:04.332Z,14.20
2022-09-25T12:02:24.664Z,16.08
2022-09-25T12:07:50.539Z,18.00
2022-09-25T12:13:05.727Z,18.10
2022-09-25T12:18:45.033Z,17.13
2022-09-25T12:23:59.988Z,17.35
2022-09-25T12:29:30.150Z,19.23
2022-09-25T12:34:38.603Z,16.92
2022-09-25T12:39:48.621Z,18.17
2022-09-25T12:45:10.112Z,14.43
2022-09-25T12:50:52.651Z,18.55
2022-09-25T12:56:05.989Z,15.60
2022-09-25T13:01:45.861Z,11.82
2022-09-25T13:06:51.922Z,13.80
2022-09-25T13:12:02.078Z,11.23
2022-09-25T13:17:05.521Z,11.73
2022-09-25T13:22:25.498Z,9.82
2022-09-25T13:27:43.002Z,10.27
2022-09-25T13:32:51.159Z,9.48
2022-09-25T13:38:36.163Z,11.63
2022-09-25T13:43:39.590Z,9.65
2022-09-25T13:48:46.660Z,9.07
2022-09-25T13:54:05.558Z,8.68
2022-09-25T13:59:14.369Z,8.82
2022-09-25T14:04:36.537Z,8.70
2022-09-25T14:09:46.641Z,8.30
2022-09-25T14:15:23.075Z,9.20
2022-09-25T14:20:42.790Z,9.27
2022-09-25T14:25:48.239Z,8.27
2022-09-25T14:31:15.048Z,8.50
2022-09-25T14:36:40.319Z,7.70
2022-09-25T14:41:50.129Z,8.07
2022-09-25T14:46:55.511Z,7.97
2022-09-25T14:52:03.054Z,7.50
2022-09-25T14:57:08.112Z,7.28
2022-09-25T15:02:34.564Z,7.43
2022-09-25T15:07:43.900Z,8.25
2022-09-25T15:12:46.903Z,7.90
2022-09-25T15:17:54.937Z,8.80
2022-09-25T15:23:06.428Z,7.57
2022-09-25T15:28:15.569Z,6.57
2022-09-25T15:33:26.875Z,6.43
2022-09-25T15:38:35.362Z,6.28
2022-09-25T15:43:38.634Z,6.60
2022-09-25T15:48:52.831Z,6.07
2022-09-25T15:53:59.390Z,6.43
2022-09-25T15:59:14.371Z,6.83
2022-09-25T16:04:41.381Z,7.67
2022-09-25T16:09:49.460Z,8.30
2022-09-25T16:14:57.770Z,8.00
2022-09-25T16:20:28.281Z,8.07
2022-09-25T16:25:46.951Z,8.07
2022-09-25T16:31:07.276Z,9.13
2022-09-25T16:36:19.118Z,11.83
2022-09-25T16:41:26.455Z,12.67
2022-09-25T16:46:31.483Z,20.17
2022-09-25T16:51:36.304Z,12.53
2022-09-25T16:56:43.612Z,11.17
2022-09-25T17:01:48.874Z,11.60
2022-09-25T17:06:52.652Z,11.83
2022-09-25T17:12:08.044Z,13.67
2022-09-25T17:17:20.952Z,11.67
2022-09-25T17:22:30.332Z,13.30
2022-09-25T17:27:34.682Z,13.77
2022-09-25T17:32:38.700Z,18.07
2022-09-25T17:37:42.169Z,25.27
2022-09-25T17:42:46.371Z,48.43
2022-09-25T17:47:51.841Z,26.87
2022-09-25T17:52:55.521Z,18.60
2022-09-25T17:57:59.391Z,13.90
2022-09-25T18:03:03.575Z,13.70
2022-09-25T18:08:11.400Z,15.60
2022-09-25T18:13:20.802Z,14.53
2022-09-25T18:18:24.771Z,19.73
2022-09-25T18:23:38.993Z,16.73
2022-09-25T18:28:42.389Z,15.67
2022-09-25T18:33:47.564Z,15.47
2022-09-25T18:39:00.508Z,15.60
2022-09-25T18:44:07.681Z,16.73
2022-09-25T18:49:12.634Z,19.27
2022-09-25T18:54:18.161Z,23.43
2022-09-25T18:59:21.921Z,20.80
2022-09-25T19:04:26.758Z,20.27
2022-09-25T19:09:36.891Z,19.53
2022-09-25T19:14:43.700Z,20.37
2022-09-25T19:19:51.922Z,25.40
2022-09-25T19:24:57.758Z,44.93
2022-09-25T19:30:04.754Z,43.97
2022-09-25T19:35:08.996Z,40.20
2022-09-25T19:40:32.751Z,39.00
2022-09-25T19:45:37.205Z,42.07
2022-09-25T19:50:43.373Z,38.53
2022-09-25T19:55:54.826Z,36.70
2022-09-25T20:00:58.713Z,39.50
2022-09-25T20:06:03.724Z,36.73
2022-09-25T20:11:22.847Z,35.40
2022-09-25T20:16:29.975Z,31.83
2022-09-25T20:21:36.823Z,33.20
2022-09-25T20:26:40.591Z,37.83
2022-09-25T20:31:46.619Z,36.87
2022-09-25T20:36:51.354Z,41.47
2022-09-25T20:41:56.806Z,39.33
2022-09-25T20:47:00.851Z,40.23
2022-09-25T20:52:06.521Z,37.57
2022-09-25T20:57:10.642Z,34.53
2022-09-25T21:02:14.531Z,33.80
2022-09-25T21:07:17.903Z,34.93
2022-09-25T21:12:22.084Z,36.67
2022-09-25T21:17:26.342Z,37.50
2022-09-25T21:22:29.585Z,30.47
2022-09-25T21:27:32.855Z,33.97
2022-09-25T21:32:36.002Z,34.00
2022-09-25T21:37:39.322Z,35.33
2022-09-25T21:42:43.494Z,32.80
2022-09-25T21:47:50.735Z,33.53
2022-09-25T21:52:56.523Z,32.33
2022-09-25T21:58:00.638Z,34.90
2022-09-25T22:03:03.933Z,35.93
2022-09-25T22:08:07.673Z,33.00
2022-09-25T22:13:10.994Z,29.73
2022-09-25T22:18:14.507Z,28.40
2022-09-25T22:23:18.144Z,27.23
2022-09-25T22:28:22.213Z,37.10
2022-09-25T22:33:25.355Z,32.90
2022-09-25T22:38:31.123Z,32.47
2022-09-25T22:43:36.363Z,32.57
2022-09-25T22:48:40.175Z,30.73
2022-09-25T22:53:44.931Z,31.23
2022-09-25T22:59:03.815Z,32.97
2022-09-25T23:04:17.227Z,30.90
2022-09-25T23:09:23.393Z,27.03
2022-09-25T23:14:30.674Z,26.33
2022-09-25T23:19:35.224Z,27.73
2022-09-25T23:24:39.150Z,26.90
2022-09-25T23:29:44.444Z,27.87
2022-09-25T23:34:47.729Z,27.97
2022-09-25T23:39:52.513Z,30.13
2022-09-25T23:44:56.102Z,27.20
2022-09-25T23:50:04.157Z,26.00
2022-09-25T23:55:08.563Z,24.97
